^^
Station Historical Data
Daily Summary for May 18, 2017 Units:  English    Metric   Both
« Previous Day
Next Day »
Daily Weekly Monthly Yearly Custom
  High: Low: Average:
Temperature: 93.4 °F 73.3 °F 83.8 °F
Dew Point: 67.9 °F 58.8 °F 64.1 °F
Humidity: 76% 32% 54%
Wind Speed: 9.0mph 0.0mph 3.6mph
Wind Gust: 24.0mph - -
Wind- - SSW
Pressure: 29.96 in 29.80 in -
Precipitation: 0.00 in    
Historical Graphs
 
 
Tabular Data for May 18, 2017
Time Temperature Dew Point Pressure Wind Wind Speed Wind Gust Humidity Rainfall Rate (Hourly) Conditions
00:00 80.4 °F 65.2 °F 29.93 in SW 3.0 mph 10.0 mph 60% 0.00 in FEW
00:15 80.1 °F 65.4 °F 29.93 in SW 3.0 mph 12.0 mph 61% 0.00 in FEW
00:30 79.9 °F 65.3 °F 29.93 in SSW 5.0 mph 12.0 mph 61% 0.00 in FEW
00:45 79.3 °F 65.1 °F 29.92 in SSW 3.0 mph 8.0 mph 62% 0.00 in FEW
01:00 79.1 °F 65.4 °F 29.92 in WSW 3.0 mph 12.0 mph 63% 0.00 in FEW
02:15 77.5 °F 65.7 °F 29.91 in South 3.0 mph 10.0 mph 67% 0.00 in FEW
02:30 77.0 °F 65.6 °F 29.91 in SSW 3.0 mph 9.0 mph 68% 0.00 in FEW
02:45 76.8 °F 65.4 °F 29.91 in SSW 1.0 mph 9.0 mph 68% 0.00 in FEW
03:00 76.4 °F 65.5 °F 29.91 in SW 2.0 mph 8.0 mph 69% 0.00 in FEW
03:15 76.0 °F 65.5 °F 29.91 in SW 1.0 mph 9.0 mph 70% 0.00 in FEW
03:30 75.7 °F 65.6 °F 29.91 in SSW 3.0 mph 7.0 mph 71% 0.00 in FEW
03:45 75.4 °F 65.3 °F 29.91 in SSW 3.0 mph 7.0 mph 71% 0.00 in FEW
04:00 75.1 °F 65.5 °F 29.91 in SSW 2.0 mph 7.0 mph 72% 0.00 in FEW
04:15 74.8 °F 65.6 °F 29.92 in Calm   5.0 mph 73% 0.00 in FEW
04:30 74.7 °F 65.5 °F 29.92 in SW 2.0 mph 6.0 mph 73% 0.00 in FEW
04:45 74.4 °F 65.2 °F 29.92 in Calm   4.0 mph 73% 0.00 in FEW
05:00 74.3 °F 65.1 °F 29.92 in Calm   4.0 mph 73% 0.00 in FEW
05:15 74.0 °F 65.2 °F 29.92 in SW 1.0 mph 7.0 mph 74% 0.00 in SCT
05:30 73.9 °F 65.1 °F 29.92 in South 2.0 mph 5.0 mph 74% 0.00 in SCT
05:45 73.6 °F 65.2 °F 29.93 in SSW 1.0 mph 4.0 mph 75% 0.00 in SCT
06:00 73.3 °F 65.2 °F 29.93 in SW 2.0 mph 7.0 mph 76% 0.00 in SCT
06:15 73.3 °F 65.3 °F 29.93 in SW 1.0 mph 5.0 mph 76% 0.00 in FEW
06:30 74.0 °F 65.6 °F 29.93 in SW 1.0 mph 7.0 mph 75% 0.00 in FEW
06:45 74.2 °F 65.4 °F 29.94 in SSW 3.0 mph 8.0 mph 74% 0.00 in FEW
07:00 74.1 °F 65.7 °F 29.95 in SW 2.0 mph 9.0 mph 75% 0.00 in FEW
07:15 73.9 °F 65.5 °F 29.96 in SW 2.0 mph 8.0 mph 75% 0.00 in FEW
07:30 73.9 °F 65.9 °F 29.96 in SSW 2.0 mph 9.0 mph 76% 0.00 in FEW
07:45 74.8 °F 65.9 °F 29.96 in SSW 2.0 mph 6.0 mph 74% 0.00 in FEW
08:00 75.9 °F 66.2 °F 29.96 in SSW 2.0 mph 8.0 mph 72% 0.00 in FEW
08:15 77.8 °F 66.8 °F 29.95 in SSW 2.0 mph 4.0 mph 69% 0.00 in FEW
08:30 78.5 °F 67.0 °F 29.96 in SSW 2.0 mph 5.0 mph 68% 0.00 in FEW
08:45 78.5 °F 67.5 °F 29.96 in SW 3.0 mph 8.0 mph 69% 0.00 in FEW
09:00 79.3 °F 67.4 °F 29.95 in WSW 3.0 mph 7.0 mph 67% 0.00 in FEW
09:15 79.8 °F 67.9 °F 29.94 in SW 1.0 mph 9.0 mph 67% 0.00 in FEW
09:30 81.3 °F 67.5 °F 29.94 in SSW 3.0 mph 7.0 mph 63% 0.00 in FEW
09:45 82.4 °F 67.6 °F 29.93 in South 3.0 mph 8.0 mph 61% 0.00 in FEW
10:00 83.3 °F 67.4 °F 29.93 in South 3.0 mph 8.0 mph 59% 0.00 in FEW
10:15 84.1 °F 67.8 °F 29.93 in SSW 5.0 mph 9.0 mph 58% 0.00 in CLR
10:30 85.3 °F 67.3 °F 29.92 in Calm   9.0 mph 55% 0.00 in CLR
10:45 86.6 °F 66.9 °F 29.92 in SSW 1.0 mph 7.0 mph 52% 0.00 in CLR
11:00 88.3 °F 64.9 °F 29.92 in SW 2.0 mph 6.0 mph 46% 0.00 in CLR
11:15 88.9 °F 62.8 °F 29.91 in WSW 2.0 mph 8.0 mph 42% 0.00 in CLR
11:30 89.2 °F 62.4 °F 29.91 in SSW 5.0 mph 9.0 mph 41% 0.00 in CLR
11:45 90.1 °F 61.8 °F 29.90 in South 2.0 mph 8.0 mph 39% 0.00 in CLR
12:00 90.2 °F 60.4 °F 29.90 in WSW 1.0 mph 8.0 mph 37% 0.00 in CLR
12:30 91.1 °F 59.7 °F 29.89 in WSW 1.0 mph 9.0 mph 35% 0.00 in CLR
12:45 92.0 °F 60.4 °F 29.89 in SW 5.0 mph 9.0 mph 35% 0.00 in CLR
13:00 92.5 °F 59.2 °F 29.88 in SSW 6.0 mph 9.0 mph 33% 0.00 in CLR
13:15 93.0 °F 58.8 °F 29.87 in SSW 5.0 mph 7.0 mph 32% 0.00 in CLR
13:30 92.8 °F 59.5 °F 29.87 in WSW 2.0 mph 12.0 mph 33% 0.00 in CLR
13:45 93.4 °F 59.1 °F 29.86 in SW 8.0 mph 12.0 mph 32% 0.00 in CLR
14:00 93.4 °F 60.9 °F 29.86 in SSW 2.0 mph 17.0 mph 34% 0.00 in CLR
14:15 93.4 °F 60.0 °F 29.86 in SSW 6.0 mph 17.0 mph 33% 0.00 in FEW
14:30 92.1 °F 62.0 °F 29.86 in South 3.0 mph 15.0 mph 37% 0.00 in FEW
14:45 91.5 °F 63.1 °F 29.85 in SW 5.0 mph 12.0 mph 39% 0.00 in FEW
15:00 91.8 °F 62.6 °F 29.85 in SW 3.0 mph 13.0 mph 38% 0.00 in FEW
15:15 92.8 °F 61.9 °F 29.84 in SSW 5.0 mph 17.0 mph 36% 0.00 in FEW
15:30 93.0 °F 60.5 °F 29.84 in SSW 6.0 mph 17.0 mph 34% 0.00 in FEW
15:45 92.8 °F 61.1 °F 29.84 in SSW 7.0 mph 14.0 mph 35% 0.00 in FEW
16:00 92.8 °F 60.3 °F 29.83 in SW 5.0 mph 17.0 mph 34% 0.00 in FEW
16:15 92.5 °F 60.0 °F 29.83 in SW 7.0 mph 18.0 mph 34% 0.00 in FEW
16:30 92.2 °F 60.6 °F 29.83 in SW 9.0 mph 20.0 mph 35% 0.00 in FEW
16:45 92.1 °F 62.1 °F 29.83 in SW 7.0 mph 17.0 mph 37% 0.00 in FEW
17:00 92.0 °F 60.4 °F 29.83 in SW 7.0 mph 24.0 mph 35% 0.00 in FEW
17:15 91.9 °F 61.1 °F 29.83 in SSW 8.0 mph 16.0 mph 36% 0.00 in FEW
17:30 91.8 °F 61.8 °F 29.82 in SSW 5.0 mph 15.0 mph 37% 0.00 in FEW
17:45 91.6 °F 61.6 °F 29.82 in SSW 5.0 mph 16.0 mph 37% 0.00 in FEW
18:00 91.3 °F 62.1 °F 29.81 in SW 6.0 mph 13.0 mph 38% 0.00 in FEW
18:15 90.9 °F 61.8 °F 29.81 in SW 6.0 mph 14.0 mph 38% 0.00 in FEW
18:30 90.7 °F 60.8 °F 29.80 in SW 5.0 mph 18.0 mph 37% 0.00 in FEW
18:45 90.2 °F 61.9 °F 29.81 in SSW 6.0 mph 13.0 mph 39% 0.00 in FEW
19:00 89.8 °F 61.5 °F 29.81 in SSW 2.0 mph 15.0 mph 39% 0.00 in FEW
19:15 89.4 °F 61.9 °F 29.81 in SSW 5.0 mph 12.0 mph 40% 0.00 in FEW
19:30 88.3 °F 62.3 °F 29.81 in South 3.0 mph 12.0 mph 42% 0.00 in FEW
19:45 87.3 °F 63.3 °F 29.82 in SSW 3.0 mph 13.0 mph 45% 0.00 in FEW
20:15 85.7 °F 64.4 °F 29.82 in SSW 3.0 mph 13.0 mph 49% 0.00 in CLR
20:30 85.4 °F 64.6 °F 29.82 in SSW 3.0 mph 13.0 mph 50% 0.00 in CLR
20:45 85.1 °F 64.9 °F 29.82 in South 3.0 mph 12.0 mph 51% 0.00 in CLR
21:00 84.6 °F 65.6 °F 29.82 in SSW 3.0 mph 12.0 mph 53% 0.00 in CLR
21:15 84.1 °F 65.7 °F 29.83 in SSW 5.0 mph 12.0 mph 54% 0.00 in CLR
21:30 84.1 °F 66.2 °F 29.83 in SSW 9.0 mph 18.0 mph 55% 0.00 in CLR
21:45 83.9 °F 66.5 °F 29.83 in South 3.0 mph 13.0 mph 56% 0.00 in CLR
22:00 83.7 °F 66.3 °F 29.84 in SSW 7.0 mph 17.0 mph 56% 0.00 in CLR
22:15 83.5 °F 66.6 °F 29.84 in SSW 5.0 mph 16.0 mph 57% 0.00 in CLR
22:30 83.0 °F 66.2 °F 29.84 in SSW 7.0 mph 17.0 mph 57% 0.00 in CLR
22:45 82.4 °F 66.1 °F 29.84 in SW 5.0 mph 12.0 mph 58% 0.00 in CLR
23:00 82.1 °F 66.4 °F 29.84 in SSW 5.0 mph 17.0 mph 59% 0.00 in CLR
23:15 81.5 °F 66.3 °F 29.84 in SSW 5.0 mph 13.0 mph 60% 0.00 in CLR
23:30 81.0 °F 66.3 °F 29.84 in SSW 5.0 mph 14.0 mph 61% 0.00 in CLR
23:45 81.0 °F 66.3 °F 29.84 in South 3.0 mph 12.0 mph 61% 0.00 in CLR
TarryTown NY Weather
Compliments of Weather Underground - 1.5 mb